Hauptseite
Satellitenwetter 15-Tage PrognosenKlimaSeewetter Wirbelstürme Blitz FlughäfenFAQ Newsletter Über uns
Wetter : Europa Afrika Nordamerika Südamerika Asien Australien-Ozeanien Andere
Sprachen Kontakt

Stuttgart, Deutschland

Echterdingen

Breite: 48-41N, Länge: 009-13E, Höhe: 396 m


METAR: EDDS 211020Z 23008KT CAVOK 06/02 Q1033 NOSIG
TAF: EDDS 210500Z 2106/2206 22010KT 9999 SCT025

Zeit: 11:40 (10:40 UTC)

Beobachtung

Neuester Wetterbericht von vor 20 Minuten, um 10:20 UTC
Wind 8 kt aus Südwest
Temperatur 6°C
Luftfeuchtigkeit 75%
Luftdruck 1033 hPa
Sichtweite 10 km oder mehr
keine Wolken unter 1500 m und keine Kumulonimbus oder Gewitterwolken

Maßeinheiten ändern

Prognose

Neuester Wetterbericht von vor 5 Stunden und 40 Minuten, um 05:00 UTC
Gültige Prognose vom 21 um 06 UTC bis 22 um 06 UTC
Wind 10 kt aus Südwest
Sichtweite 10 km oder mehr
Aufgelockert bewölkt in der Höhe von 2500 ft
Die Angaben auf diesen Webseiten unterliegen einer Erklärung über den Haftungsausschluss
Wetter : Europa Afrika Nordamerika Südamerika Asien Australien-Ozeanien Andere
Satellitenwetter 15-Tage PrognosenKlimaSeewetter Wirbelstürme Blitz FlughäfenFAQ Sprachen Kontakt Newsletter Über uns